Time;durP1;ratioP1;P1;durP2;ratioP2;P2;SDS_P1;SDS_P2;PMS_P1;PMS_P2;Temp;Humidity;BMP_temperature;BMP_pressure;BME280_temperature;BME280_humidity;BME280_pressure;Samples;Min_cycle;Max_cycle;Signal;HPM_P1;HPM_P2
2022/02/04 00:06:55;;;;;;;5.68;1.75;;;;;;;;;;4938158;28;20056;-77
2022/02/04 00:09:56;;;;;;;4.20;1.80;;;;;;;;;;4937674;28;20035;-77
2022/02/04 00:20:52;;;;;;;5.32;1.58;;;;;;;;;;4947003;28;20051;-77
2022/02/04 00:23:25;;;;;;;4.68;2.22;;;;;;;;;;4948041;28;20055;-77
2022/02/04 00:26:01;;;;;;;4.15;1.63;;;;;;;;;;4947154;28;20054;-76
2022/02/04 00:28:42;;;;;;;7.32;2.92;;;;;;;;;;4934509;29;20465;-77
2022/02/04 00:31:24;;;;;;;4.87;1.83;;;;;;;;;;4930429;28;20513;-77
2022/02/04 00:33:58;;;;;;;6.72;2.90;;;;;;;;;;4951210;28;20051;-77
2022/02/04 00:36:33;;;;;;;7.28;2.75;;;;;;;;;;4949704;28;20055;-77
2022/02/04 00:39:33;;;;;;;5.68;2.75;;;;;;;;;;4948202;28;20058;-77
2022/02/04 00:42:07;;;;;;;5.50;2.50;;;;;;;;;;4945869;28;20043;-78
2022/02/04 00:44:38;;;;;;;7.53;2.80;;;;;;;;;;4949732;28;20046;-76
2022/02/04 00:47:31;;;;;;;5.50;2.40;;;;;;;;;;4927581;28;20146;-77
2022/02/04 00:50:08;;;;;;;5.07;2.97;;;;;;;;;;4950434;28;20050;-76
2022/02/04 00:52:43;;;;;;;6.43;2.75;;;;;;;;;;4948288;28;20224;-76
2022/02/04 00:55:23;;;;;;;6.60;2.55;;;;;;;;;;4948249;28;20035;-77
2022/02/04 01:06:23;;;;;;;5.30;2.77;;;;;;;;;;4948219;28;20083;-76
2022/02/04 01:26:02;;;;;;;7.90;3.57;;;;;;;;;;4948797;28;20043;-76
2022/02/04 01:28:33;;;;;;;8.07;3.20;;;;;;;;;;4928039;29;20490;-76
2022/02/04 01:31:03;;;;;;;7.70;3.60;;;;;;;;;;4942850;28;20142;-76
2022/02/04 01:33:32;;;;;;;6.53;3.00;;;;;;;;;;4948519;28;20069;-77
2022/02/04 01:36:01;;;;;;;9.05;3.83;;;;;;;;;;4925456;28;20054;-76
2022/02/04 01:38:30;;;;;;;7.67;3.27;;;;;;;;;;4948125;28;20055;-76
2022/02/04 01:41:00;;;;;;;7.85;3.97;;;;;;;;;;4951063;28;20043;-76
2022/02/04 01:43:29;;;;;;;4.78;1.90;;;;;;;;;;4945830;28;20051;-76
2022/02/04 01:46:01;;;;;;;7.18;3.58;;;;;;;;;;4942248;28;20050;-76
2022/02/04 01:48:31;;;;;;;6.47;3.13;;;;;;;;;;4948218;28;20498;-77
2022/02/04 01:51:00;;;;;;;7.37;2.83;;;;;;;;;;4926161;28;20044;-76
2022/02/04 01:53:30;;;;;;;7.30;2.95;;;;;;;;;;4946331;28;20042;-77
2022/02/04 01:56:01;;;;;;;7.53;3.70;;;;;;;;;;4946207;28;20128;-76
2022/02/04 02:01:25;;;;;;;7.55;4.00;;;;;;;;;;4942739;28;20051;-76
2022/02/04 02:03:56;;;;;;;5.37;2.77;;;;;;;;;;4949137;28;20083;-76
2022/02/04 02:06:40;;;;;;;7.55;2.65;;;;;;;;;;4944459;29;20684;-76
2022/02/04 02:09:09;;;;;;;7.18;3.10;;;;;;;;;;4947145;28;20055;-76
2022/02/04 02:11:38;;;;;;;6.47;2.72;;;;;;;;;;4932264;29;20044;-76
2022/02/04 02:14:10;;;;;;;8.38;2.97;;;;;;;;;;4931013;28;20093;-76
2022/02/04 02:37:10;;;;;;;7.95;3.65;;;;;;;;;;4926602;28;20135;-76
2022/02/04 02:40:17;;;;;;;7.78;3.22;;;;;;;;;;4944651;28;20091;-76
2022/02/04 02:43:02;;;;;;;9.35;4.55;;;;;;;;;;4944156;28;20055;-76
2022/02/04 02:45:51;;;;;;;7.40;3.33;;;;;;;;;;4946048;28;20413;-77
2022/02/04 02:48:37;;;;;;;5.40;2.05;;;;;;;;;;4941861;28;20442;-77
2022/02/04 02:51:32;;;;;;;7.53;3.70;;;;;;;;;;4930086;28;20050;-76
2022/02/04 02:54:13;;;;;;;5.93;2.67;;;;;;;;;;4944207;28;20039;-76
2022/02/04 02:59:44;;;;;;;6.93;3.13;;;;;;;;;;4940875;28;20136;-76
2022/02/04 03:02:13;;;;;;;7.25;3.03;;;;;;;;;;4942663;28;20147;-77
2022/02/04 03:04:42;;;;;;;6.28;3.05;;;;;;;;;;4941927;28;20035;-76
2022/02/04 03:07:13;;;;;;;2.47;1.40;;;;;;;;;;4947862;28;20047;-77
2022/02/04 03:09:42;;;;;;;7.55;2.97;;;;;;;;;;4923874;28;20070;-77
2022/02/04 03:12:12;;;;;;;7.47;2.57;;;;;;;;;;4945705;28;20065;-77
2022/02/04 03:14:42;;;;;;;4.88;3.08;;;;;;;;;;4911936;28;20070;-76
2022/02/04 03:17:14;;;;;;;5.68;2.53;;;;;;;;;;4941558;28;20215;-76
2022/02/04 03:19:49;;;;;;;4.15;2.10;;;;;;;;;;4946379;28;20505;-77
2022/02/04 03:22:18;;;;;;;10.95;3.13;;;;;;;;;;4948359;28;20044;-77
2022/02/04 03:24:56;;;;;;;5.13;2.93;;;;;;;;;;4947587;28;20505;-79
2022/02/04 03:27:35;;;;;;;9.30;3.20;;;;;;;;;;4945816;28;20102;-77
2022/02/04 03:30:09;;;;;;;10.82;2.92;;;;;;;;;;4933683;28;20403;-76
2022/02/04 03:32:44;;;;;;;4.53;2.72;;;;;;;;;;4943979;28;20142;-76
2022/02/04 03:35:18;;;;;;;14.57;3.33;;;;;;;;;;4940081;28;20044;-76
2022/02/04 03:37:48;;;;;;;7.47;2.90;;;;;;;;;;4941457;28;20070;-77
2022/02/04 03:40:18;;;;;;;8.00;3.00;;;;;;;;;;4928321;29;20055;-76
2022/02/04 03:42:49;;;;;;;9.57;3.40;;;;;;;;;;4925940;29;20380;-77
2022/02/04 03:45:20;;;;;;;7.50;3.35;;;;;;;;;;4931514;28;20404;-77
2022/02/04 03:47:50;;;;;;;10.88;3.80;;;;;;;;;;4920991;29;20063;-77
2022/02/04 03:50:19;;;;;;;7.47;2.83;;;;;;;;;;4925320;29;20043;-76
2022/02/04 03:52:48;;;;;;;6.03;2.63;;;;;;;;;;4928613;29;20054;-77
2022/02/04 03:55:19;;;;;;;10.55;3.25;;;;;;;;;;4925839;29;20074;-76
2022/02/04 03:57:50;;;;;;;8.18;3.42;;;;;;;;;;4932910;29;20106;-76
2022/02/04 04:00:19;;;;;;;9.10;3.05;;;;;;;;;;4927833;28;20052;-77
2022/02/04 04:02:52;;;;;;;8.03;2.67;;;;;;;;;;4932216;29;20042;-77
2022/02/04 04:05:21;;;;;;;6.13;2.90;;;;;;;;;;4931476;28;20058;-76
2022/02/04 04:07:51;;;;;;;9.68;4.03;;;;;;;;;;4944660;28;20051;-77
2022/02/04 04:10:22;;;;;;;8.18;3.88;;;;;;;;;;4935863;29;20118;-76
2022/02/04 04:12:54;;;;;;;8.25;2.95;;;;;;;;;;4930408;29;20044;-77
2022/02/04 04:15:23;;;;;;;4.93;2.03;;;;;;;;;;4926957;28;20285;-76
2022/02/04 04:17:52;;;;;;;6.63;2.90;;;;;;;;;;4932594;29;20051;-76
2022/02/04 04:20:21;;;;;;;9.32;4.13;;;;;;;;;;4934799;29;20066;-76
2022/02/04 04:22:50;;;;;;;8.20;2.67;;;;;;;;;;4933613;29;20546;-76
2022/02/04 04:25:19;;;;;;;9.75;3.38;;;;;;;;;;4933257;29;20043;-76
2022/02/04 04:27:52;;;;;;;5.90;2.37;;;;;;;;;;4934225;29;20130;-78
2022/02/04 04:30:23;;;;;;;6.40;2.40;;;;;;;;;;4929616;29;20063;-76
2022/02/04 04:32:58;;;;;;;6.78;3.83;;;;;;;;;;4933541;29;20463;-77
2022/02/04 04:35:28;;;;;;;7.88;2.60;;;;;;;;;;4933421;29;20050;-77
2022/02/04 04:38:04;;;;;;;5.47;2.28;;;;;;;;;;4933082;29;20660;-77
2022/02/04 04:40:52;;;;;;;7.20;3.13;;;;;;;;;;4950050;28;20039;-76
2022/02/04 04:43:35;;;;;;;5.68;2.25;;;;;;;;;;4955044;28;20043;-77
2022/02/04 05:28:13;;;;;;;6.80;2.53;;;;;;;;;;4949659;28;20036;-77
2022/02/04 05:30:42;;;;;;;8.45;3.45;;;;;;;;;;4943724;28;20059;-77
2022/02/04 05:33:11;;;;;;;5.35;2.30;;;;;;;;;;4948178;28;20392;-77
2022/02/04 05:35:42;;;;;;;4.57;2.40;;;;;;;;;;4945394;28;20085;-78
2022/02/04 05:38:13;;;;;;;6.80;2.90;;;;;;;;;;4946024;28;20055;-78
2022/02/04 05:40:46;;;;;;;5.50;2.70;;;;;;;;;;4943144;28;20039;-77
2022/02/04 05:43:19;;;;;;;5.82;3.22;;;;;;;;;;4947294;28;20047;-77
2022/02/04 05:46:02;;;;;;;5.72;2.88;;;;;;;;;;4947237;28;20063;-78
2022/02/04 05:48:34;;;;;;;5.63;2.40;;;;;;;;;;4950416;28;20055;-77
2022/02/04 05:53:55;;;;;;;8.77;3.53;;;;;;;;;;4944283;28;20054;-77
2022/02/04 05:56:33;;;;;;;7.47;2.85;;;;;;;;;;4950244;28;20058;-82
2022/02/04 05:59:11;;;;;;;4.43;2.08;;;;;;;;;;4935003;28;20059;-79
2022/02/04 06:14:48;;;;;;;5.53;2.20;;;;;;;;;;4920733;29;20052;-81
2022/02/04 06:22:59;;;;;;;4.40;1.98;;;;;;;;;;4933231;29;20070;-78
2022/02/04 06:25:29;;;;;;;4.28;2.22;;;;;;;;;;4932516;29;20047;-78
2022/02/04 06:28:00;;;;;;;6.20;2.60;;;;;;;;;;4933321;29;20533;-78
2022/02/04 06:30:32;;;;;;;7.90;2.30;;;;;;;;;;4907786;29;20784;-79
2022/02/04 06:33:21;;;;;;;6.93;3.90;;;;;;;;;;4933750;29;20496;-78
2022/02/04 06:35:50;;;;;;;9.60;3.03;;;;;;;;;;4929863;29;20052;-76
2022/02/04 06:38:21;;;;;;;5.80;2.05;;;;;;;;;;4936931;29;20047;-76
2022/02/04 06:41:12;;;;;;;4.00;2.17;;;;;;;;;;4928932;29;20139;-76
2022/02/04 06:43:41;;;;;;;4.90;2.77;;;;;;;;;;4933217;29;20095;-76
2022/02/04 06:46:14;;;;;;;7.03;2.30;;;;;;;;;;4924282;29;20122;-76
2022/02/04 06:49:09;;;;;;;7.65;2.95;;;;;;;;;;4932465;29;20086;-76
2022/02/04 06:51:39;;;;;;;6.82;2.65;;;;;;;;;;4930735;28;20051;-76
2022/02/04 06:54:08;;;;;;;6.90;3.47;;;;;;;;;;4932174;29;20050;-78
2022/02/04 06:56:39;;;;;;;6.63;2.93;;;;;;;;;;4929243;29;20122;-78
2022/02/04 06:59:09;;;;;;;6.70;2.95;;;;;;;;;;4932416;29;20414;-78
2022/02/04 07:01:40;;;;;;;6.45;2.42;;;;;;;;;;4925023;28;20090;-78
2022/02/04 07:04:09;;;;;;;4.88;2.88;;;;;;;;;;4932484;29;20039;-78
2022/02/04 07:06:59;;;;;;;5.63;2.53;;;;;;;;;;4941394;28;20091;-78
2022/02/04 07:09:54;;;;;;;7.20;3.10;;;;;;;;;;4933593;29;20106;-78
2022/02/04 07:15:57;;;;;;;9.13;3.38;;;;;;;;;;4930494;29;20052;-78
2022/02/04 07:21:52;;;;;;;8.60;2.78;;;;;;;;;;4929109;29;20047;-78
2022/02/04 07:24:21;;;;;;;6.23;2.87;;;;;;;;;;4930784;29;20047;-78
2022/02/04 07:26:52;;;;;;;10.43;3.30;;;;;;;;;;4929178;29;20491;-78
2022/02/04 07:29:21;;;;;;;6.10;2.40;;;;;;;;;;4933046;29;20054;-78
2022/02/04 07:31:51;;;;;;;6.53;3.25;;;;;;;;;;4923984;29;20517;-78
2022/02/04 07:34:49;;;;;;;5.63;2.80;;;;;;;;;;4931536;29;20043;-76
2022/02/04 07:40:57;;;;;;;7.70;3.42;;;;;;;;;;4933536;29;20044;-78
2022/02/04 07:43:49;;;;;;;7.00;2.75;;;;;;;;;;4929548;29;20288;-78
2022/02/04 07:46:20;;;;;;;5.00;2.60;;;;;;;;;;4929851;28;20063;-78
2022/02/04 07:48:50;;;;;;;6.07;2.47;;;;;;;;;;4926282;29;20055;-76
2022/02/04 07:51:21;;;;;;;4.70;2.57;;;;;;;;;;4933056;29;20050;-75
2022/02/04 07:53:50;;;;;;;5.00;2.08;;;;;;;;;;4930178;29;20047;-75
2022/02/04 07:59:08;;;;;;;7.45;1.98;;;;;;;;;;4927785;29;20137;-76
2022/02/04 08:01:56;;;;;;;4.50;2.28;;;;;;;;;;4928795;29;20044;-75
2022/02/04 08:04:28;;;;;;;7.13;2.40;;;;;;;;;;4913428;29;20134;-75
2022/02/04 08:07:16;;;;;;;5.72;2.28;;;;;;;;;;4931882;29;20062;-76
2022/02/04 08:10:39;;;;;;;5.82;2.60;;;;;;;;;;4926314;29;20074;-75
2022/02/04 08:13:40;;;;;;;7.03;2.60;;;;;;;;;;4929700;29;20066;-76
2022/02/04 08:16:44;;;;;;;6.10;2.58;;;;;;;;;;4926985;28;20520;-76
2022/02/04 08:19:40;;;;;;;5.57;2.67;;;;;;;;;;4926814;29;20131;-79
2022/02/04 08:22:36;;;;;;;5.88;2.38;;;;;;;;;;4925347;29;20044;-78
2022/02/04 08:28:29;;;;;;;6.28;2.75;;;;;;;;;;4906909;29;20070;-77
2022/02/04 08:34:04;;;;;;;4.90;2.13;;;;;;;;;;4913847;28;20068;-77
2022/02/04 08:36:56;;;;;;;5.97;1.48;;;;;;;;;;4918622;29;20051;-77
2022/02/04 08:54:33;;;;;;;4.03;1.17;;;;;;;;;;4925946;29;20131;-78
2022/02/04 08:57:16;;;;;;;4.07;1.55;;;;;;;;;;4930812;29;20110;-77
2022/02/04 08:59:56;;;;;;;2.60;1.13;;;;;;;;;;4926998;29;20043;-77
2022/02/04 09:02:34;;;;;;;3.73;1.23;;;;;;;;;;4926313;28;20154;-77
2022/02/04 09:05:07;;;;;;;4.18;1.85;;;;;;;;;;4948765;28;20501;-78
2022/02/04 09:07:48;;;;;;;4.47;1.30;;;;;;;;;;4929146;29;21199;-77
2022/02/04 09:10:23;;;;;;;5.47;1.23;;;;;;;;;;4934670;29;20119;-77
2022/02/04 09:19:02;;;;;;;6.20;1.48;;;;;;;;;;4934307;29;20052;-77
2022/02/04 09:24:21;;;;;;;2.60;0.70;;;;;;;;;;4919371;29;20052;-80
2022/02/04 09:26:51;;;;;;;2.25;0.90;;;;;;;;;;4932536;29;20482;-79
2022/02/04 09:29:20;;;;;;;2.47;1.13;;;;;;;;;;4938659;29;20058;-80
2022/02/04 09:31:49;;;;;;;2.70;1.20;;;;;;;;;;4937329;29;20098;-80
2022/02/04 09:34:22;;;;;;;2.60;1.05;;;;;;;;;;4941521;29;20051;-81
2022/02/04 09:36:51;;;;;;;2.90;0.90;;;;;;;;;;4944406;29;20054;-81
2022/02/04 09:39:20;;;;;;;3.05;1.30;;;;;;;;;;4949770;29;20055;-80
2022/02/04 09:41:49;;;;;;;3.67;1.00;;;;;;;;;;4946953;29;20177;-81
2022/02/04 09:44:19;;;;;;;4.40;1.00;;;;;;;;;;4948854;29;20058;-81
2022/02/04 09:46:48;;;;;;;2.50;0.68;;;;;;;;;;4945790;28;20083;-81
2022/02/04 09:49:24;;;;;;;4.70;1.65;;;;;;;;;;4944221;29;20078;-81
2022/02/04 10:12:31;;;;;;;3.10;1.17;;;;;;;;;;4971462;28;20052;-81
2022/02/04 10:19:22;;;;;;;2.70;0.52;;;;;;;;;;4939033;29;20051;-78
2022/02/04 10:22:10;;;;;;;2.55;0.75;;;;;;;;;;4939938;29;20047;-81
2022/02/04 10:24:40;;;;;;;2.38;0.90;;;;;;;;;;4938121;29;20044;-80
2022/02/04 10:27:27;;;;;;;2.67;0.93;;;;;;;;;;4950583;29;20454;-83
2022/02/04 15:56:09;;;;;;;2.00;0.60;;;;;;;;;;4992175;28;20031;-81
2022/02/04 15:59:06;;;;;;;3.53;0.63;;;;;;;;;;4978177;28;20033;-80
2022/02/04 16:01:59;;;;;;;3.95;0.98;;;;;;;;;;4971272;28;20043;-79
2022/02/04 16:04:44;;;;;;;2.00;0.57;;;;;;;;;;4972304;28;20469;-80
2022/02/04 16:07:16;;;;;;;1.80;0.50;;;;;;;;;;4962907;28;20059;-80
2022/02/04 16:12:51;;;;;;;1.90;0.38;;;;;;;;;;4967332;28;20043;-79
2022/02/04 16:15:32;;;;;;;1.35;0.43;;;;;;;;;;4975205;28;20090;-78
2022/02/04 16:18:13;;;;;;;2.87;0.77;;;;;;;;;;4975607;28;20629;-78
2022/02/04 16:21:08;;;;;;;1.52;0.65;;;;;;;;;;4973681;28;20126;-76
2022/02/04 16:24:02;;;;;;;2.10;0.60;;;;;;;;;;4987981;28;20455;-80
2022/02/04 16:26:52;;;;;;;1.17;0.30;;;;;;;;;;4984742;28;20315;-80
2022/02/04 16:29:22;;;;;;;1.90;0.60;;;;;;;;;;4993732;28;20051;-80
2022/02/04 16:31:54;;;;;;;1.83;0.67;;;;;;;;;;4986158;28;20769;-80
2022/02/04 16:34:34;;;;;;;1.45;0.50;;;;;;;;;;4989214;28;20516;-80
2022/02/04 16:37:16;;;;;;;2.65;0.75;;;;;;;;;;4978338;28;20057;-80
2022/02/04 16:39:52;;;;;;;2.90;0.90;;;;;;;;;;4992009;28;20046;-80
2022/02/04 16:45:06;;;;;;;1.33;0.47;;;;;;;;;;4983849;28;20027;-82
2022/02/04 16:47:44;;;;;;;1.50;0.65;;;;;;;;;;4997152;28;20121;-81
2022/02/04 16:50:21;;;;;;;2.05;0.60;;;;;;;;;;4985732;28;20038;-80
2022/02/04 16:55:49;;;;;;;2.35;0.75;;;;;;;;;;4988863;28;20050;-80
2022/02/04 16:58:25;;;;;;;3.50;0.70;;;;;;;;;;4990449;28;20027;-81
2022/02/04 17:00:58;;;;;;;2.63;0.60;;;;;;;;;;4990903;28;20111;-80
2022/02/04 17:03:30;;;;;;;1.75;0.50;;;;;;;;;;4960003;28;20053;-81
2022/02/04 17:06:18;;;;;;;2.58;1.02;;;;;;;;;;4990370;28;20063;-81
2022/02/04 17:08:57;;;;;;;2.78;0.50;;;;;;;;;;4970513;28;20106;-80
2022/02/04 17:11:40;;;;;;;5.13;0.53;;;;;;;;;;4990189;28;20034;-80
2022/02/04 18:24:26;;;;;;;2.60;0.60;;;;;;;;;;5587830;23;20046;-82
2022/02/04 18:27:01;;;;;;;1.20;0.40;;;;;;;;;;4997475;28;20050;-82
2022/02/04 19:48:51;;;;;;;2.22;0.40;;;;;;;;;;5997490;23;20372;-82
2022/02/04 20:43:45;;;;;;;2.58;0.50;;;;;;;;;;4992118;28;20042;-82
2022/02/04 20:46:18;;;;;;;2.10;0.43;;;;;;;;;;4998762;28;20059;-80
2022/02/04 20:48:49;;;;;;;2.13;0.60;;;;;;;;;;4995260;28;20286;-81
